Weldon, Illinois
Current Conditions -  °F | °C
As of 6:54 PM on Saturday 22 Nov 2014 (Local Time) from KDEC Reporting Station
Light Rain Light Rain  
Wind Chill: 53°   Ceiling: 8000
Heat Index: 53°   Visibility: 10mi
Dew Point: 48°   Wind: 13mph
Humidity: 83%   Direction: 200°SSW
Pressure: 29.95"   Gusts: NA
Location:  40.12°N, 88.75°W
Report Text: KDEC 230054Z AUTO 20011KT 10SM -RA FEW037 SCT055 OVC080 12/09 A2995 RMK AO2 RAB44 SLP143 P0000 T01170089 TSNO
Loading
Personal Weather Stations






























Interactive Weather Map New forecast layout! Learn more

10-Day Weather Forecast

Advertisements
Track Severe Weather on mobile